ADDS METAR Data INFO
IDs: Format: Raw Decoded Include TAF

Data at: 2053 UTC 24 Jun 2018

KF00 242035Z AUTO 15013G18KT 10SM SCT050 34/22 A2984 RMK AO2 T03380218
KF00 242015Z AUTO 17016G23KT 10SM CLR 33/21 A2983 RMK AO2 T03320214
KF00 241955Z AUTO 15013G22KT 10SM CLR 33/22 A2982 RMK AO2 T03320217
KF00 241935Z AUTO 17017G23KT 10SM CLR 33/21 A2982 RMK AO2 T03290214
KF00 241915Z AUTO 17016G22KT 10SM SCT046 33/22 A2982 RMK AO2 T03260216
KF00 241855Z AUTO 17017G24KT 10SM SCT044 SCT049 32/22 A2983 RMK AO2 T03220216
KF00 241835Z AUTO 16013KT 140V200 10SM SCT040 32/22 A2985 RMK AO2 T03210220
KF00 241815Z AUTO 14015G21KT 10SM SCT036 SCT045 31/22 A2985 RMK AO2 T03100220
KF00 241755Z AUTO 16013G20KT 10SM SCT034 SCT043 31/22 A2987 RMK AO2 T03100225 10311 20254
KF00 241735Z AUTO 16013G16KT 10SM SCT033 SCT045 30/22 A2988 RMK AO2 T03050222
KF00 241715Z AUTO 16013G19KT 10SM SCT033 SCT047 30/22 A2989 RMK AO2 T03030223
KF00 241655Z AUTO 16012KT 10SM SCT035 SCT044 BKN050 30/22 A2989 RMK AO2 T03030222
KF00 241635Z AUTO 17012KT 10SM BKN035 OVC043 29/21 A2990 RMK AO2 T02890215
KF00 241615Z AUTO 15010G17KT 10SM BKN035 OVC042 29/21 A2991 RMK AO2 T02900214
KF00 241555Z AUTO 15010G14KT 10SM SCT029 BKN035 OVC041 29/22 A2991 RMK AO2 T02890218
KF00 241535Z AUTO 15010G14KT 10SM SCT029 BKN037 OVC046 29/22 A2991 RMK AO2 T02930223
KF00 241515Z AUTO 15008KT 10SM SCT027 BKN035 BKN044 28/22 A2991 RMK AO2 LTG DSNT SE T02850222
KF00 241455Z AUTO 14012G18KT 10SM SCT027 BKN049 29/22 A2991 RMK AO2 LTG DSNT SE T02860225
KF00 241435Z AUTO 13010KT 10SM SCT031 SCT038 BKN049 28/23 A2991 RMK AO2 T02770226
KF00 241415Z AUTO 12011KT 10SM BKN030 BKN037 OVC049 27/22 A2991 RMK AO2 T02670222
KF00 241355Z AUTO 10007KT 10SM BKN030 OVC037 26/22 A2992 RMK AO2 LTG DSNT NE T02600221
KF00 241335Z AUTO 07004KT 10SM OVC030 26/22 A2992 RMK AO2 LTG DSNT E T02620219
KF00 241315Z AUTO 00000KT 10SM BKN030 BKN035 OVC044 26/22 A2992 RMK AO2 LTG DSNT NE AND E T02610216
KF00 241255Z AUTO 18004KT 10SM SCT028 BKN035 OVC042 26/22 A2990 RMK AO2 T02580216
KF00 241235Z AUTO 00000KT 10SM SCT026 OVC033 26/22 A2990 RMK AO2 T02550216
KF00 241215Z AUTO 18011KT 10SM OVC033 25/22 A2984 RMK AO2 LTG DSNT N T02550215
KF00 241155Z AUTO 19006KT 10SM OVC028 25/22 A2986 RMK AO2 LTG DSNT N T02540216 10279 20251 70003
KF00 241135Z AUTO 16006KT 10SM OVC028 25/21 A2983 RMK AO2 T02530215
KF00 241115Z AUTO 18007KT 10SM BKN028 25/22 A2982 RMK AO2 T02540215
KF00 241055Z AUTO 16012G19KT 10SM SCT028 25/21 A2978 RMK AO2 T02520215
KF00 241035Z AUTO 17014G20KT 10SM SCT030 25/22 A2976 RMK AO2 T02540215
KF00 241015Z AUTO 17013G17KT 10SM CLR 25/22 A2975 RMK AO2 T02540215
KF00 240955Z AUTO 16015G20KT 10SM SCT027 26/22 A2975 RMK AO2 LTG DSNT N T02570216
KF00 240935Z AUTO 16014G21KT 10SM SCT025 26/22 A2975 RMK AO2 T02590218
KF00 240915Z AUTO 16016G24KT 10SM SCT025 26/22 A2974 RMK AO2 LTG DSNT NE T02610219
KF00 240855Z AUTO 16018G23KT 10SM SCT025 26/22 A2974 RMK AO2 T02620219
KF00 240835Z AUTO 15015G23KT 10SM SCT120 26/22 A2974 RMK AO2 T02650220
KF00 240815Z AUTO 17015G21KT 10SM SCT120 27/22 A2976 RMK AO2 T02660220
KF00 240755Z AUTO 17015G23KT 10SM SCT120 27/22 A2976 RMK AO2 T02670220
KF00 240735Z AUTO 16013G20KT 10SM SCT090 BKN120 27/22 A2978 RMK AO2 T02700220
KF00 240715Z AUTO 17012G18KT 10SM BKN090 BKN110 27/22 A2978 RMK AO2 T02720219
KF00 240655Z AUTO 18013G21KT 10SM SCT110 27/22 A2979 RMK AO2 LTG DSNT N AND SW T02740219
KF00 240635Z AUTO 18014G22KT 10SM SCT110 28/22 A2981 RMK AO2 T02770218
KF00 240615Z AUTO 18014G20KT 10SM CLR 28/22 A2981 RMK AO2 T02790217
KF00 240555Z AUTO 16012KT 10SM CLR 28/21 A2979 RMK AO2 LTG DSNT W T02780214 10328 20276 403380210
KF00 240535Z AUTO 16012G16KT 10SM CLR 28/21 A2979 RMK AO2 LTG DSNT SW T02770211
KF00 240515Z AUTO 17012KT 10SM CLR 28/21 A2979 RMK AO2 T02770209
KF00 240455Z AUTO 16010KT 10SM CLR 28/21 A2979 RMK AO2 T02780208
KF00 240435Z AUTO 16009KT 10SM CLR 28/21 A2980 RMK AO2 T02780208
KF00 240415Z AUTO 16010KT 3SM HZ CLR 28/21 A2979 RMK AO2 T02770207
KF00 240355Z AUTO 14009KT 10SM CLR 28/21 A2980 RMK AO2 T02770207
KF00 240335Z AUTO 15008KT 10SM CLR 28/21 A2979 RMK AO2 T02790208
KF00 240315Z AUTO 14009KT 7SM HZ CLR 28/21 A2978 RMK AO2 T02770209
KF00 240255Z AUTO 14009KT 10SM CLR 28/21 A2978 RMK AO2 T02780207
KF00 240235Z AUTO 13007KT 10SM CLR 28/21 A2978 RMK AO2 T02820205
KF00 240215Z AUTO 15009KT 10SM CLR 29/20 A2977 RMK AO2 T02890202
KF00 240155Z AUTO 16011KT 10SM CLR 29/20 A2977 RMK AO2 T02930204
KF00 240135Z AUTO 15009KT 10SM CLR 30/21 A2976 RMK AO2 T02960212
KF00 240115Z AUTO 17009KT 10SM SCT070 30/21 A2977 RMK AO2 T03010214
KF00 240055Z AUTO 17007KT 10SM BKN070 31/22 A2977 RMK AO2 T03060218
KF00 240035Z AUTO 17007KT 10SM SCT070 32/22 A2977 RMK AO2 T03150221
KF00 240015Z AUTO 18009KT 10SM BKN060 32/22 A2977 RMK AO2 T03240218
KF00 232355Z AUTO 17013KT 10SM SCT060 SCT070 33/22 A2976 RMK AO2 T03260216 10338 20288
KF00 232335Z AUTO 15010G15KT 10SM SCT060 33/22 A2976 RMK AO2 T03300217
KF00 232315Z AUTO 17009KT 10SM BKN050 BKN070 33/22 A2976 RMK AO2 T03340219
KF00 232255Z AUTO 14012KT 10SM BKN048 SCT060 BKN070 34/22 A2976 RMK AO2 T03360222
KF00 232235Z AUTO 15011KT 10SM SCT048 SCT060 33/22 A2977 RMK AO2 T03340224
KF00 232215Z AUTO 17012G16KT 130V190 10SM SCT048 SCT060 SCT075 34/23 A2977 RMK AO2 T03360230
KF00 232155Z AUTO 16014G19KT 10SM SCT046 SCT060 SCT075 33/23 A2978 RMK AO2 T03340229
KF00 232135Z AUTO 15009KT 10SM SCT048 SCT060 SCT075 33/23 A2978 RMK AO2 T03300231
KF00 232115Z AUTO 15010KT 10SM SCT041 SCT075 33/23 A2978 RMK AO2 T03280233
KF00 232055Z AUTO 17013KT 10SM SCT039 33/23 A2979 RMK AO2 T03280233
KF00 232035Z AUTO 16007G16KT 10SM SCT036 33/24 A2979 RMK AO2 T03280239
KF00 232015Z AUTO 15009KT 10SM SCT034 32/24 A2980 RMK AO2 T03160237
KF00 231955Z AUTO 16006G17KT 10SM BKN032 31/24 A2981 RMK AO2 T03130236
KF00 231935Z AUTO 15011KT 10SM SCT030 31/24 A2982 RMK AO2 T03120238
KF00 231915Z AUTO 17009KT 10SM SCT028 31/24 A2982 RMK AO2 T03090238
KF00 231855Z AUTO 17012G15KT 10SM SCT028 30/23 A2984 RMK AO2 T03040232
KF00 231835Z AUTO 16010G14KT 10SM CLR 30/22 A2985 RMK AO2 T02980224
KF00 231815Z AUTO 14009KT 10SM CLR 30/22 A2986 RMK AO2 T02950217
KF00 231755Z AUTO 14010G16KT 10SM SCT030 30/21 A2987 RMK AO2 T02950206 10301 20210 60003
KF00 231735Z AUTO 12012KT 10SM BKN030 29/20 A2987 RMK AO2 T02870202
KF00 231715Z AUTO 13007KT 10SM BKN034 28/20 A2988 RMK AO2 T02840205
KF00 231655Z AUTO 10009KT 10SM BKN034 28/20 A2989 RMK AO2 T02780200
KF00 231635Z AUTO 11007KT 10SM SCT036 27/21 A2990 RMK AO2 T02670205
KF00 231615Z AUTO 11010KT 10SM CLR 26/20 A2990 RMK AO2 T02560201
KF00 231555Z AUTO 12011KT 10SM CLR 24/20 A2990 RMK AO2 T02440198
KF00 231535Z AUTO 10010KT 10SM SCT043 SCT060 SCT070 25/21 A2991 RMK AO2 T02520205
KF00 231515Z AUTO 10010KT 10SM BKN041 BKN060 BKN070 23/20 A2992 RMK AO2 T02300196
KF00 231455Z AUTO 09010KT 10SM -RA OVC039 23/19 A2993 RMK AO2 LTG DSNT NW T02260193 60003
KF00 231435Z AUTO 10006KT 10SM OVC039 22/20 A2994 RMK AO2 LTG DSNT SE T02240199
KF00 231415Z AUTO 10008KT 3/4SM BR OVC041 22/20 A2993 RMK AO2 LTG DSNT N AND NE T02190197
KF00 231355Z AUTO 09006KT 10SM BKN043 BKN050 22/20 A2992 RMK AO2 LTG DSNT ALQDS P0003 T02180200
KF00 231335Z AUTO 05004KT 10SM -VCTSRA SCT045 SCT050 BKN095 21/20 A2991 RMK AO2 LTG DSNT ALQDS P0003 T02110196
KF00 231315Z AUTO 08011KT 7SM +RA SCT018 BKN043 OVC050 22/19 A2991 RMK AO2 LTG DSNT ALQDS P0001 T02180191
KF00 231255Z AUTO 01013G20KT 10SM TS SCT012 BKN025 OVC037 22/19 A2994 RMK AO2 LTG DSNT ALQDS T02180188
KF00 231235Z AUTO 13006KT 10SM VCTS BKN039 BKN048 OVC055 22/18 A2990 RMK AO2 LTG DSNT NW THRU NE T02210185
KF00 231215Z AUTO 12006KT 10SM BKN039 OVC060 22/18 A2988 RMK AO2 LTG DSNT N AND NW T02190184
KF00 231155Z AUTO 12005KT 10SM OVC060 22/18 A2986 RMK AO2 LTG DSNT NE AND NW T02180184 10268 20211 70010
KF00 231135Z AUTO 12006KT 10SM BKN048 OVC050 22/18 A2984 RMK AO2 LTG DSNT N T02170185
KF00 231115Z AUTO 11006KT 10SM OVC048 22/19 A2983 RMK AO2 LTG DSNT NW T02160186
KF00 231055Z AUTO 11008KT 10SM OVC048 22/19 A2982 RMK AO2 LTG DSNT N T02160186
KF00 231035Z AUTO 10006KT 10SM BKN048 22/19 A2983 RMK AO2 T02160185
KF00 231015Z AUTO 10006KT 10SM SCT050 21/18 A2983 RMK AO2 T02120184
KF00 230955Z AUTO 09009KT 10SM SCT055 21/19 A2982 RMK AO2 T02130186
KF00 230935Z AUTO 09010KT 10SM BKN055 22/19 A2983 RMK AO2 T02160185
KF00 230915Z AUTO 05009KT 10SM SCT047 SCT055 22/18 A2985 RMK AO2 T02160184
KF00 230855Z AUTO 04012G17KT 10SM BKN047 OVC055 22/18 A2986 RMK AO2 LTG DSNT NE T02190183